sensor_id;sensor_type;location;lat;lon;timestamp;temperature;humidity
354;DHT22;165;53.592;10.044;2023-03-23T06:25:22;11.50;99.90
354;DHT22;165;53.592;10.044;2023-03-23T06:27:48;11.60;99.90
354;DHT22;165;53.592;10.044;2023-03-23T06:30:14;11.60;99.90
354;DHT22;165;53.592;10.044;2023-03-23T06:32:40;11.70;99.90
354;DHT22;165;53.592;10.044;2023-03-23T06:35:06;12.00;99.90
354;DHT22;165;53.592;10.044;2023-03-23T06:37:31;12.00;99.90
354;DHT22;165;53.592;10.044;2023-03-23T06:39:57;12.10;99.90
354;DHT22;165;53.592;10.044;2023-03-23T06:42:26;12.20;99.90
354;DHT22;165;53.592;10.044;2023-03-23T06:44:52;12.80;99.90
354;DHT22;165;53.592;10.044;2023-03-23T06:47:18;13.20;99.90
354;DHT22;165;53.592;10.044;2023-03-23T06:49:43;13.00;99.90
354;DHT22;165;53.592;10.044;2023-03-23T06:52:09;12.80;99.90
354;DHT22;165;53.592;10.044;2023-03-23T06:54:35;12.70;99.90
354;DHT22;165;53.592;10.044;2023-03-23T06:57:00;12.60;99.90
354;DHT22;165;53.592;10.044;2023-03-23T06:59:25;12.50;99.90
354;DHT22;165;53.592;10.044;2023-03-23T07:01:51;12.60;99.90
354;DHT22;165;53.592;10.044;2023-03-23T07:04:16;12.60;99.90
354;DHT22;165;53.592;10.044;2023-03-23T07:06:42;12.60;99.90
354;DHT22;165;53.592;10.044;2023-03-23T07:09:07;12.70;99.90
354;DHT22;165;53.592;10.044;2023-03-23T07:11:33;12.80;99.90
354;DHT22;165;53.592;10.044;2023-03-23T07:13:58;12.90;99.90
354;DHT22;165;53.592;10.044;2023-03-23T07:16:24;13.30;99.90
354;DHT22;165;53.592;10.044;2023-03-23T07:18:49;13.60;99.90
354;DHT22;165;53.592;10.044;2023-03-23T07:21:35;14.50;99.90
354;DHT22;165;53.592;10.044;2023-03-23T07:24:01;14.80;99.90
354;DHT22;165;53.592;10.044;2023-03-23T07:26:26;15.10;99.90
354;DHT22;165;53.592;10.044;2023-03-23T07:28:52;14.40;99.90
354;DHT22;165;53.592;10.044;2023-03-23T07:31:17;13.90;99.90
354;DHT22;165;53.592;10.044;2023-03-23T07:33:43;13.60;99.90
354;DHT22;165;53.592;10.044;2023-03-23T07:36:09;13.70;99.90
354;DHT22;165;53.592;10.044;2023-03-23T07:38:34;13.60;99.90
354;DHT22;165;53.592;10.044;2023-03-23T07:41:00;13.70;99.90
354;DHT22;165;53.592;10.044;2023-03-23T07:43:25;13.90;99.90
354;DHT22;165;53.592;10.044;2023-03-23T07:45:51;14.10;99.90
354;DHT22;165;53.592;10.044;2023-03-23T07:48:17;14.20;99.90
354;DHT22;165;53.592;10.044;2023-03-23T07:50:42;14.60;99.90
354;DHT22;165;53.592;10.044;2023-03-23T07:53:08;14.60;99.90
354;DHT22;165;53.592;10.044;2023-03-23T07:55:33;14.20;99.90
354;DHT22;165;53.592;10.044;2023-03-23T07:57:59;13.90;99.90
354;DHT22;165;53.592;10.044;2023-03-23T08:00:24;13.50;99.90
354;DHT22;165;53.592;10.044;2023-03-23T08:02:55;13.20;99.90
354;DHT22;165;53.592;10.044;2023-03-23T08:05:21;13.10;99.90
354;DHT22;165;53.592;10.044;2023-03-23T08:07:47;12.90;99.90
354;DHT22;165;53.592;10.044;2023-03-23T08:10:14;13.00;99.90
354;DHT22;165;53.592;10.044;2023-03-23T08:12:41;13.10;99.90
354;DHT22;165;53.592;10.044;2023-03-23T08:15:08;13.30;99.90
354;DHT22;165;53.592;10.044;2023-03-23T08:17:35;13.30;99.90
354;DHT22;165;53.592;10.044;2023-03-23T08:20:01;13.00;99.90
354;DHT22;165;53.592;10.044;2023-03-23T08:22:27;12.90;99.90
354;DHT22;165;53.592;10.044;2023-03-23T08:24:52;12.80;99.90
354;DHT22;165;53.592;10.044;2023-03-23T08:27:18;12.80;99.90
354;DHT22;165;53.592;10.044;2023-03-23T08:29:46;12.80;99.90
354;DHT22;165;53.592;10.044;2023-03-23T08:32:12;12.70;99.90
354;DHT22;165;53.592;10.044;2023-03-23T08:34:38;12.60;99.90
354;DHT22;165;53.592;10.044;2023-03-23T08:37:04;12.10;99.90
354;DHT22;165;53.592;10.044;2023-03-23T08:39:29;11.80;99.90
354;DHT22;165;53.592;10.044;2023-03-23T08:41:55;11.60;99.90
354;DHT22;165;53.592;10.044;2023-03-23T08:44:20;11.60;99.90
354;DHT22;165;53.592;10.044;2023-03-23T08:46:47;11.60;99.90
354;DHT22;165;53.592;10.044;2023-03-23T08:49:12;11.60;99.90
354;DHT22;165;53.592;10.044;2023-03-23T08:51:38;11.80;99.90
354;DHT22;165;53.592;10.044;2023-03-23T08:54:03;12.40;99.90
354;DHT22;165;53.592;10.044;2023-03-23T08:56:29;13.40;99.90
354;DHT22;165;53.592;10.044;2023-03-23T08:58:54;15.10;99.90
354;DHT22;165;53.592;10.044;2023-03-23T09:01:20;15.50;99.90
354;DHT22;165;53.592;10.044;2023-03-23T09:03:45;15.60;99.90
354;DHT22;165;53.592;10.044;2023-03-23T09:06:11;15.60;99.90
354;DHT22;165;53.592;10.044;2023-03-23T09:08:37;15.40;99.90
354;DHT22;165;53.592;10.044;2023-03-23T09:11:03;15.20;99.90
354;DHT22;165;53.592;10.044;2023-03-23T09:13:29;15.70;99.90
354;DHT22;165;53.592;10.044;2023-03-23T09:15:55;16.30;99.90
354;DHT22;165;53.592;10.044;2023-03-23T09:18:20;16.70;99.90
354;DHT22;165;53.592;10.044;2023-03-23T09:20:46;16.60;99.90
354;DHT22;165;53.592;10.044;2023-03-23T09:23:14;16.10;99.90
354;DHT22;165;53.592;10.044;2023-03-23T09:25:39;15.70;99.90
354;DHT22;165;53.592;10.044;2023-03-23T09:28:05;15.20;99.90
354;DHT22;165;53.592;10.044;2023-03-23T09:30:32;14.70;99.90
354;DHT22;165;53.592;10.044;2023-03-23T09:33:01;14.60;99.90
354;DHT22;165;53.592;10.044;2023-03-23T09:35:26;14.60;99.90
354;DHT22;165;53.592;10.044;2023-03-23T09:37:52;14.60;99.90
354;DHT22;165;53.592;10.044;2023-03-23T09:40:21;14.30;99.90
354;DHT22;165;53.592;10.044;2023-03-23T09:51:40;14.30;99.90
354;DHT22;165;53.592;10.044;2023-03-23T09:54:23;14.80;99.90
354;DHT22;165;53.592;10.044;2023-03-23T09:56:50;15.00;99.90
354;DHT22;165;53.592;10.044;2023-03-23T10:01:48;15.60;99.90
354;DHT22;165;53.592;10.044;2023-03-23T10:04:28;16.80;99.90
354;DHT22;165;53.592;10.044;2023-03-23T10:07:03;18.00;99.90
354;DHT22;165;53.592;10.044;2023-03-23T10:09:31;18.20;99.90
354;DHT22;165;53.592;10.044;2023-03-23T10:15:08;17.20;99.90
354;DHT22;165;53.592;10.044;2023-03-23T10:20:23;16.50;99.90
354;DHT22;165;53.592;10.044;2023-03-23T10:23:05;16.90;99.90
354;DHT22;165;53.592;10.044;2023-03-23T10:25:36;17.60;99.90
354;DHT22;165;53.592;10.044;2023-03-23T10:28:16;17.90;99.90
354;DHT22;165;53.592;10.044;2023-03-23T10:30:45;17.30;99.90
354;DHT22;165;53.592;10.044;2023-03-23T10:33:18;16.50;99.90
354;DHT22;165;53.592;10.044;2023-03-23T10:36:05;15.90;99.90
354;DHT22;165;53.592;10.044;2023-03-23T10:38:38;15.50;99.90
354;DHT22;165;53.592;10.044;2023-03-23T10:41:11;15.60;99.90
354;DHT22;165;53.592;10.044;2023-03-23T10:43:38;15.80;99.90
354;DHT22;165;53.592;10.044;2023-03-23T10:49:04;15.80;99.90
354;DHT22;165;53.592;10.044;2023-03-23T10:51:34;15.50;99.90
354;DHT22;165;53.592;10.044;2023-03-23T10:54:02;15.40;99.90
354;DHT22;165;53.592;10.044;2023-03-23T10:56:38;15.30;99.90
354;DHT22;165;53.592;10.044;2023-03-23T10:59:25;15.20;99.90
354;DHT22;165;53.592;10.044;2023-03-23T11:01:53;15.00;99.90
354;DHT22;165;53.592;10.044;2023-03-23T11:04:20;14.90;99.90
354;DHT22;165;53.592;10.044;2023-03-23T11:06:49;14.90;99.90
354;DHT22;165;53.592;10.044;2023-03-23T11:09:18;15.20;99.90
354;DHT22;165;53.592;10.044;2023-03-23T11:11:53;15.30;99.90
354;DHT22;165;53.592;10.044;2023-03-23T11:14:28;15.60;99.90
354;DHT22;165;53.592;10.044;2023-03-23T11:16:56;15.90;99.90
354;DHT22;165;53.592;10.044;2023-03-23T11:19:29;15.90;99.90
354;DHT22;165;53.592;10.044;2023-03-23T11:24:28;16.20;99.90
354;DHT22;165;53.592;10.044;2023-03-23T11:26:56;16.00;99.90
354;DHT22;165;53.592;10.044;2023-03-23T11:29:25;16.20;99.90
354;DHT22;165;53.592;10.044;2023-03-23T11:32:01;15.90;99.90
354;DHT22;165;53.592;10.044;2023-03-23T11:34:32;15.60;99.90
354;DHT22;165;53.592;10.044;2023-03-23T11:37:01;15.40;99.90
354;DHT22;165;53.592;10.044;2023-03-23T11:39:46;15.50;99.90
354;DHT22;165;53.592;10.044;2023-03-23T11:42:17;15.70;99.90
354;DHT22;165;53.592;10.044;2023-03-23T11:44:44;15.80;99.90
354;DHT22;165;53.592;10.044;2023-03-23T11:50:10;16.00;99.90
354;DHT22;165;53.592;10.044;2023-03-23T11:52:48;15.70;99.90
354;DHT22;165;53.592;10.044;2023-03-23T11:56:21;15.40;99.90
354;DHT22;165;53.592;10.044;2023-03-23T11:58:13;15.40;99.90
354;DHT22;165;53.592;10.044;2023-03-23T12:00:57;15.40;99.90
354;DHT22;165;53.592;10.044;2023-03-23T12:04:13;15.10;99.90
354;DHT22;165;53.592;10.044;2023-03-23T12:07:04;14.90;99.90
354;DHT22;165;53.592;10.044;2023-03-23T12:12:45;14.70;99.90
354;DHT22;165;53.592;10.044;2023-03-23T12:15:22;14.80;99.90
354;DHT22;165;53.592;10.044;2023-03-23T12:18:18;15.00;99.90
354;DHT22;165;53.592;10.044;2023-03-23T12:20:57;15.10;99.90
354;DHT22;165;53.592;10.044;2023-03-23T12:24:10;15.10;99.90
354;DHT22;165;53.592;10.044;2023-03-23T12:26:48;14.90;99.90
354;DHT22;165;53.592;10.044;2023-03-23T12:29:28;14.80;99.90
354;DHT22;165;53.592;10.044;2023-03-23T12:32:06;14.70;99.90
354;DHT22;165;53.592;10.044;2023-03-23T12:43:23;14.40;99.90
354;DHT22;165;53.592;10.044;2023-03-23T12:48:48;14.60;99.90
354;DHT22;165;53.592;10.044;2023-03-23T12:51:22;14.50;99.90
354;DHT22;165;53.592;10.044;2023-03-23T12:56:33;14.50;99.90
354;DHT22;165;53.592;10.044;2023-03-23T13:02:14;14.80;99.90
354;DHT22;165;53.592;10.044;2023-03-23T13:04:45;14.90;99.90
354;DHT22;165;53.592;10.044;2023-03-23T13:07:16;15.10;99.90
354;DHT22;165;53.592;10.044;2023-03-23T13:12:15;15.90;99.90
354;DHT22;165;53.592;10.044;2023-03-23T13:18:17;15.50;99.90
354;DHT22;165;53.592;10.044;2023-03-23T13:20:51;15.10;99.90
354;DHT22;165;53.592;10.044;2023-03-23T13:23:59;15.20;99.90
354;DHT22;165;53.592;10.044;2023-03-23T13:26:25;15.30;99.90
354;DHT22;165;53.592;10.044;2023-03-23T13:28:58;15.40;99.90
354;DHT22;165;53.592;10.044;2023-03-23T13:31:35;15.50;99.90
354;DHT22;165;53.592;10.044;2023-03-23T13:34:24;15.30;99.90
354;DHT22;165;53.592;10.044;2023-03-23T13:37:11;15.20;99.90
354;DHT22;165;53.592;10.044;2023-03-23T13:39:59;15.30;99.90
354;DHT22;165;53.592;10.044;2023-03-23T13:42:28;15.50;99.90
354;DHT22;165;53.592;10.044;2023-03-23T13:44:55;15.50;99.90
354;DHT22;165;53.592;10.044;2023-03-23T13:47:26;15.50;99.90
354;DHT22;165;53.592;10.044;2023-03-23T14:00:34;15.30;99.90
354;DHT22;165;53.592;10.044;2023-03-23T14:05:40;15.00;99.90
354;DHT22;165;53.592;10.044;2023-03-23T14:08:23;14.50;99.90
354;DHT22;165;53.592;10.044;2023-03-23T14:13:26;13.00;99.90
354;DHT22;165;53.592;10.044;2023-03-23T14:15:58;12.30;99.90
354;DHT22;165;53.592;10.044;2023-03-23T14:18:36;11.60;99.90
354;DHT22;165;53.592;10.044;2023-03-23T14:21:03;11.50;99.90
354;DHT22;165;53.592;10.044;2023-03-23T14:23:31;11.30;99.90
354;DHT22;165;53.592;10.044;2023-03-23T14:26:12;11.40;99.90
354;DHT22;165;53.592;10.044;2023-03-23T14:28:39;11.60;99.90
354;DHT22;165;53.592;10.044;2023-03-23T14:31:12;11.80;99.90
354;DHT22;165;53.592;10.044;2023-03-23T14:33:39;12.00;99.90
354;DHT22;165;53.592;10.044;2023-03-23T14:36:05;12.20;99.90
354;DHT22;165;53.592;10.044;2023-03-23T14:38:31;12.50;99.90
354;DHT22;165;53.592;10.044;2023-03-23T14:41:00;12.80;99.90
354;DHT22;165;53.592;10.044;2023-03-23T14:43:26;13.00;99.90
354;DHT22;165;53.592;10.044;2023-03-23T14:45:54;13.00;99.90
354;DHT22;165;53.592;10.044;2023-03-23T14:48:21;12.90;99.90
354;DHT22;165;53.592;10.044;2023-03-23T14:50:51;12.90;99.90
354;DHT22;165;53.592;10.044;2023-03-23T14:53:24;13.00;99.90
354;DHT22;165;53.592;10.044;2023-03-23T14:55:53;13.00;99.90
354;DHT22;165;53.592;10.044;2023-03-23T14:58:21;13.00;99.90
354;DHT22;165;53.592;10.044;2023-03-23T15:00:58;13.00;99.90
354;DHT22;165;53.592;10.044;2023-03-23T15:03:25;12.90;99.90
354;DHT22;165;53.592;10.044;2023-03-23T15:06:00;13.00;99.90
354;DHT22;165;53.592;10.044;2023-03-23T15:08:31;13.10;99.90
354;DHT22;165;53.592;10.044;2023-03-23T15:13:55;13.00;99.90
354;DHT22;165;53.592;10.044;2023-03-23T15:16:26;12.80;99.90
354;DHT22;165;53.592;10.044;2023-03-23T15:19:06;12.80;99.90
354;DHT22;165;53.592;10.044;2023-03-23T15:24:43;13.00;99.90
354;DHT22;165;53.592;10.044;2023-03-23T15:27:23;13.10;99.90
354;DHT22;165;53.592;10.044;2023-03-23T15:29:52;13.20;99.90
354;DHT22;165;53.592;10.044;2023-03-23T15:32:36;13.20;99.90
354;DHT22;165;53.592;10.044;2023-03-23T15:35:09;13.20;99.90
354;DHT22;165;53.592;10.044;2023-03-23T15:37:42;13.10;99.90
354;DHT22;165;53.592;10.044;2023-03-23T15:40:19;13.10;99.90
354;DHT22;165;53.592;10.044;2023-03-23T15:42:46;13.10;99.90
354;DHT22;165;53.592;10.044;2023-03-23T15:47:46;13.30;99.90
354;DHT22;165;53.592;10.044;2023-03-23T15:52:42;13.60;99.90
354;DHT22;165;53.592;10.044;2023-03-23T15:55:25;13.60;99.90
354;DHT22;165;53.592;10.044;2023-03-23T15:57:52;13.50;99.90
354;DHT22;165;53.592;10.044;2023-03-23T16:00:19;13.30;99.90
354;DHT22;165;53.592;10.044;2023-03-23T16:02:46;13.30;99.90
354;DHT22;165;53.592;10.044;2023-03-23T16:05:13;13.30;99.90
354;DHT22;165;53.592;10.044;2023-03-23T16:07:39;13.10;99.90
354;DHT22;165;53.592;10.044;2023-03-23T16:10:06;13.10;99.90
354;DHT22;165;53.592;10.044;2023-03-23T16:12:32;13.10;99.90
354;DHT22;165;53.592;10.044;2023-03-23T16:14:59;13.10;99.90
354;DHT22;165;53.592;10.044;2023-03-23T16:17:25;13.10;99.90
354;DHT22;165;53.592;10.044;2023-03-23T16:19:50;13.00;99.90
354;DHT22;165;53.592;10.044;2023-03-23T16:22:16;13.00;99.90
354;DHT22;165;53.592;10.044;2023-03-23T16:24:41;12.90;99.90
354;DHT22;165;53.592;10.044;2023-03-23T16:27:09;12.80;99.90
354;DHT22;165;53.592;10.044;2023-03-23T16:29:35;12.80;99.90
354;DHT22;165;53.592;10.044;2023-03-23T16:32:01;12.80;99.90
354;DHT22;165;53.592;10.044;2023-03-23T16:34:26;12.90;99.90
354;DHT22;165;53.592;10.044;2023-03-23T16:36:52;13.00;99.90
354;DHT22;165;53.592;10.044;2023-03-23T16:39:17;13.10;99.90
354;DHT22;165;53.592;10.044;2023-03-23T16:41:43;12.90;99.90
354;DHT22;165;53.592;10.044;2023-03-23T16:44:09;12.80;99.90
354;DHT22;165;53.592;10.044;2023-03-23T16:46:40;12.70;99.90
354;DHT22;165;53.592;10.044;2023-03-23T16:49:06;12.60;99.90
354;DHT22;165;53.592;10.044;2023-03-23T16:51:34;12.40;99.90
354;DHT22;165;53.592;10.044;2023-03-23T16:54:00;12.30;99.90
354;DHT22;165;53.592;10.044;2023-03-23T16:56:25;12.30;99.90
354;DHT22;165;53.592;10.044;2023-03-23T17:01:47;12.20;99.90
354;DHT22;165;53.592;10.044;2023-03-23T17:04:13;12.20;99.90
354;DHT22;165;53.592;10.044;2023-03-23T17:06:38;12.20;99.90
354;DHT22;165;53.592;10.044;2023-03-23T17:09:04;12.20;99.90
354;DHT22;165;53.592;10.044;2023-03-23T17:11:29;12.10;99.90
354;DHT22;165;53.592;10.044;2023-03-23T17:13:55;12.00;99.90
354;DHT22;165;53.592;10.044;2023-03-23T17:16:20;12.00;99.90
354;DHT22;165;53.592;10.044;2023-03-23T17:18:46;12.00;99.90
354;DHT22;165;53.592;10.044;2023-03-23T17:21:11;12.00;99.90
354;DHT22;165;53.592;10.044;2023-03-23T17:23:37;12.00;99.90
354;DHT22;165;53.592;10.044;2023-03-23T17:26:02;12.10;99.90
354;DHT22;165;53.592;10.044;2023-03-23T17:28:28;12.10;99.90
354;DHT22;165;53.592;10.044;2023-03-23T17:30:53;12.20;99.90
354;DHT22;165;53.592;10.044;2023-03-23T17:33:19;12.20;99.90
354;DHT22;165;53.592;10.044;2023-03-23T17:35:45;12.20;99.90
354;DHT22;165;53.592;10.044;2023-03-23T17:38:11;12.20;99.90
354;DHT22;165;53.592;10.044;2023-03-23T17:40:37;12.20;99.90
354;DHT22;165;53.592;10.044;2023-03-23T17:43:02;12.20;99.90
354;DHT22;165;53.592;10.044;2023-03-23T17:45:28;12.20;99.90
354;DHT22;165;53.592;10.044;2023-03-23T17:47:54;12.10;99.90
354;DHT22;165;53.592;10.044;2023-03-23T17:50:19;12.00;99.90
354;DHT22;165;53.592;10.044;2023-03-23T17:52:45;11.90;99.90
354;DHT22;165;53.592;10.044;2023-03-23T17:55:10;11.80;99.90
354;DHT22;165;53.592;10.044;2023-03-23T17:57:36;11.70;99.90
354;DHT22;165;53.592;10.044;2023-03-23T18:00:03;11.60;99.90
354;DHT22;165;53.592;10.044;2023-03-23T18:02:28;11.50;99.90
354;DHT22;165;53.592;10.044;2023-03-23T18:04:56;11.40;99.90
354;DHT22;165;53.592;10.044;2023-03-23T18:07:22;11.40;99.90
354;DHT22;165;53.592;10.044;2023-03-23T18:09:48;11.40;99.90
354;DHT22;165;53.592;10.044;2023-03-23T18:12:13;11.30;99.90
354;DHT22;165;53.592;10.044;2023-03-23T18:14:39;11.30;99.90
354;DHT22;165;53.592;10.044;2023-03-23T18:17:05;11.20;99.90
354;DHT22;165;53.592;10.044;2023-03-23T18:19:30;11.20;99.90
354;DHT22;165;53.592;10.044;2023-03-23T18:21:56;11.20;99.90
354;DHT22;165;53.592;10.044;2023-03-23T18:24:21;11.10;99.90
354;DHT22;165;53.592;10.044;2023-03-23T18:26:47;11.10;99.90
354;DHT22;165;53.592;10.044;2023-03-23T18:29:12;11.00;99.90
354;DHT22;165;53.592;10.044;2023-03-23T18:31:38;11.00;99.90
354;DHT22;165;53.592;10.044;2023-03-23T18:34:03;11.00;99.90
354;DHT22;165;53.592;10.044;2023-03-23T18:36:29;10.90;99.90
354;DHT22;165;53.592;10.044;2023-03-23T18:38:56;10.90;99.90
354;DHT22;165;53.592;10.044;2023-03-23T18:41:22;10.90;99.90
354;DHT22;165;53.592;10.044;2023-03-23T18:43:47;10.90;99.90
354;DHT22;165;53.592;10.044;2023-03-23T18:46:13;10.90;99.90
354;DHT22;165;53.592;10.044;2023-03-23T18:48:38;11.00;99.90
354;DHT22;165;53.592;10.044;2023-03-23T18:51:04;11.00;99.90
354;DHT22;165;53.592;10.044;2023-03-23T18:53:29;11.00;99.90
354;DHT22;165;53.592;10.044;2023-03-23T18:56:10;10.90;99.90
354;DHT22;165;53.592;10.044;2023-03-23T18:58:36;10.90;99.90
354;DHT22;165;53.592;10.044;2023-03-23T19:01:07;10.90;99.90
354;DHT22;165;53.592;10.044;2023-03-23T19:03:34;10.90;99.90
354;DHT22;165;53.592;10.044;2023-03-23T19:06:00;10.90;99.90
354;DHT22;165;53.592;10.044;2023-03-23T19:08:27;10.80;99.90
354;DHT22;165;53.592;10.044;2023-03-23T19:11:00;10.80;99.90
354;DHT22;165;53.592;10.044;2023-03-23T19:13:28;10.80;99.90
354;DHT22;165;53.592;10.044;2023-03-23T19:15:53;10.80;99.90
354;DHT22;165;53.592;10.044;2023-03-23T19:18:19;10.80;99.90
354;DHT22;165;53.592;10.044;2023-03-23T19:20:45;10.70;99.90
354;DHT22;165;53.592;10.044;2023-03-23T19:23:11;10.70;99.90
354;DHT22;165;53.592;10.044;2023-03-23T19:25:37;10.60;99.90
354;DHT22;165;53.592;10.044;2023-03-23T19:28:02;10.60;99.90
354;DHT22;165;53.592;10.044;2023-03-23T19:30:28;10.60;99.90
354;DHT22;165;53.592;10.044;2023-03-23T19:32:53;10.50;99.90
354;DHT22;165;53.592;10.044;2023-03-23T19:35:18;10.50;99.90
354;DHT22;165;53.592;10.044;2023-03-23T19:37:44;10.50;99.90
354;DHT22;165;53.592;10.044;2023-03-23T19:40:09;10.50;99.90
354;DHT22;165;53.592;10.044;2023-03-23T19:42:35;10.50;99.90
354;DHT22;165;53.592;10.044;2023-03-23T19:45:00;10.50;99.90
354;DHT22;165;53.592;10.044;2023-03-23T19:47:29;10.60;99.90
354;DHT22;165;53.592;10.044;2023-03-23T19:49:54;10.80;99.90
354;DHT22;165;53.592;10.044;2023-03-23T19:52:20;10.80;99.90
354;DHT22;165;53.592;10.044;2023-03-23T19:54:45;10.90;99.90
354;DHT22;165;53.592;10.044;2023-03-23T19:57:11;10.90;99.90
354;DHT22;165;53.592;10.044;2023-03-23T19:59:37;10.90;99.90
354;DHT22;165;53.592;10.044;2023-03-23T20:02:03;11.00;99.90
354;DHT22;165;53.592;10.044;2023-03-23T20:04:28;10.90;99.90
354;DHT22;165;53.592;10.044;2023-03-23T20:06:55;10.90;99.90
354;DHT22;165;53.592;10.044;2023-03-23T20:09:20;10.80;99.90
354;DHT22;165;53.592;10.044;2023-03-23T20:11:46;10.80;99.90
354;DHT22;165;53.592;10.044;2023-03-23T20:14:11;10.70;99.90
354;DHT22;165;53.592;10.044;2023-03-23T20:16:37;10.70;99.90
354;DHT22;165;53.592;10.044;2023-03-23T20:19:02;10.60;99.90
354;DHT22;165;53.592;10.044;2023-03-23T20:21:28;10.60;99.90
354;DHT22;165;53.592;10.044;2023-03-23T20:23:57;10.50;99.90
354;DHT22;165;53.592;10.044;2023-03-23T20:26:28;10.50;99.90
354;DHT22;165;53.592;10.044;2023-03-23T20:28:54;10.50;99.90
354;DHT22;165;53.592;10.044;2023-03-23T20:31:23;10.50;99.90
354;DHT22;165;53.592;10.044;2023-03-23T20:33:50;10.50;99.90
354;DHT22;165;53.592;10.044;2023-03-23T20:36:17;10.50;99.90
354;DHT22;165;53.592;10.044;2023-03-23T20:38:43;10.50;99.90
354;DHT22;165;53.592;10.044;2023-03-23T20:41:09;10.50;99.90
354;DHT22;165;53.592;10.044;2023-03-23T20:43:34;10.40;99.90
354;DHT22;165;53.592;10.044;2023-03-23T20:46:00;10.40;99.90
354;DHT22;165;53.592;10.044;2023-03-23T20:48:29;10.40;99.90
354;DHT22;165;53.592;10.044;2023-03-23T20:50:55;10.40;99.90
354;DHT22;165;53.592;10.044;2023-03-23T20:53:22;10.50;99.90
354;DHT22;165;53.592;10.044;2023-03-23T20:55:49;10.50;99.90
354;DHT22;165;53.592;10.044;2023-03-23T20:58:15;10.50;99.90
354;DHT22;165;53.592;10.044;2023-03-23T21:00:40;10.50;99.90
354;DHT22;165;53.592;10.044;2023-03-23T21:03:06;10.50;99.90
354;DHT22;165;53.592;10.044;2023-03-23T21:05:32;10.60;99.90
354;DHT22;165;53.592;10.044;2023-03-23T21:07:57;10.60;99.90
354;DHT22;165;53.592;10.044;2023-03-23T21:10:23;10.60;99.90
354;DHT22;165;53.592;10.044;2023-03-23T21:12:48;10.60;99.90
354;DHT22;165;53.592;10.044;2023-03-23T21:15:14;10.50;99.90
354;DHT22;165;53.592;10.044;2023-03-23T21:17:39;10.60;99.90
354;DHT22;165;53.592;10.044;2023-03-23T21:20:05;10.60;99.90
354;DHT22;165;53.592;10.044;2023-03-23T21:22:31;10.50;99.90
354;DHT22;165;53.592;10.044;2023-03-23T21:24:56;10.50;99.90
354;DHT22;165;53.592;10.044;2023-03-23T21:27:22;10.50;99.90
354;DHT22;165;53.592;10.044;2023-03-23T21:29:47;10.50;99.90
354;DHT22;165;53.592;10.044;2023-03-23T21:32:13;10.50;99.90
354;DHT22;165;53.592;10.044;2023-03-23T21:34:38;10.50;99.90
354;DHT22;165;53.592;10.044;2023-03-23T21:37:04;10.50;99.90
354;DHT22;165;53.592;10.044;2023-03-23T21:39:29;10.60;99.90
354;DHT22;165;53.592;10.044;2023-03-23T21:41:55;10.60;99.90
354;DHT22;165;53.592;10.044;2023-03-23T21:44:20;10.60;99.90
354;DHT22;165;53.592;10.044;2023-03-23T21:46:46;10.60;99.90
354;DHT22;165;53.592;10.044;2023-03-23T21:49:12;10.60;99.90
354;DHT22;165;53.592;10.044;2023-03-23T21:51:37;10.60;99.90
354;DHT22;165;53.592;10.044;2023-03-23T21:54:03;10.60;99.90
354;DHT22;165;53.592;10.044;2023-03-23T21:56:28;10.60;99.90
354;DHT22;165;53.592;10.044;2023-03-23T21:58:55;10.60;99.90
354;DHT22;165;53.592;10.044;2023-03-23T22:01:20;10.60;99.90
354;DHT22;165;53.592;10.044;2023-03-23T22:03:47;10.60;99.90
354;DHT22;165;53.592;10.044;2023-03-23T22:06:18;10.60;99.90
354;DHT22;165;53.592;10.044;2023-03-23T22:08:45;10.70;99.90
354;DHT22;165;53.592;10.044;2023-03-23T22:11:19;10.80;99.90
354;DHT22;165;53.592;10.044;2023-03-23T22:13:47;10.80;99.90
354;DHT22;165;53.592;10.044;2023-03-23T22:16:15;10.80;99.90
354;DHT22;165;53.592;10.044;2023-03-23T22:18:41;10.80;99.90
354;DHT22;165;53.592;10.044;2023-03-23T22:21:08;10.70;99.90
354;DHT22;165;53.592;10.044;2023-03-23T22:23:34;10.70;99.90
354;DHT22;165;53.592;10.044;2023-03-23T22:26:00;10.70;99.90
354;DHT22;165;53.592;10.044;2023-03-23T22:28:26;10.70;99.90
354;DHT22;165;53.592;10.044;2023-03-23T22:30:59;10.80;99.90
354;DHT22;165;53.592;10.044;2023-03-23T22:33:25;10.80;99.90
354;DHT22;165;53.592;10.044;2023-03-23T22:35:50;10.80;99.90
354;DHT22;165;53.592;10.044;2023-03-23T22:38:16;10.80;99.90
354;DHT22;165;53.592;10.044;2023-03-23T22:40:42;10.80;99.90
354;DHT22;165;53.592;10.044;2023-03-23T22:43:08;10.70;99.90
354;DHT22;165;53.592;10.044;2023-03-23T22:45:34;10.80;99.90
354;DHT22;165;53.592;10.044;2023-03-23T22:47:59;10.70;99.90
354;DHT22;165;53.592;10.044;2023-03-23T22:50:25;10.70;99.90
354;DHT22;165;53.592;10.044;2023-03-23T22:52:51;10.70;99.90
354;DHT22;165;53.592;10.044;2023-03-23T22:55:16;10.70;99.90
354;DHT22;165;53.592;10.044;2023-03-23T22:57:42;10.70;99.90
354;DHT22;165;53.592;10.044;2023-03-23T23:00:08;10.70;99.90
354;DHT22;165;53.592;10.044;2023-03-23T23:02:34;10.70;99.90
354;DHT22;165;53.592;10.044;2023-03-23T23:05:00;10.70;99.90
354;DHT22;165;53.592;10.044;2023-03-23T23:07:25;10.70;99.90
354;DHT22;165;53.592;10.044;2023-03-23T23:09:50;10.70;99.90
354;DHT22;165;53.592;10.044;2023-03-23T23:12:16;10.70;99.90
354;DHT22;165;53.592;10.044;2023-03-23T23:14:42;10.70;99.90
354;DHT22;165;53.592;10.044;2023-03-23T23:17:08;10.70;99.90
354;DHT22;165;53.592;10.044;2023-03-23T23:19:34;10.70;99.90
354;DHT22;165;53.592;10.044;2023-03-23T23:22:00;10.70;99.90
354;DHT22;165;53.592;10.044;2023-03-23T23:24:25;10.80;99.90
354;DHT22;165;53.592;10.044;2023-03-23T23:26:51;10.80;99.90
354;DHT22;165;53.592;10.044;2023-03-23T23:29:17;10.80;99.90
354;DHT22;165;53.592;10.044;2023-03-23T23:31:42;10.80;99.90
354;DHT22;165;53.592;10.044;2023-03-23T23:34:11;10.80;99.90
354;DHT22;165;53.592;10.044;2023-03-23T23:36:36;10.80;99.90
354;DHT22;165;53.592;10.044;2023-03-23T23:39:03;10.80;99.90
354;DHT22;165;53.592;10.044;2023-03-23T23:41:28;10.80;99.90
354;DHT22;165;53.592;10.044;2023-03-23T23:43:54;10.80;99.90
354;DHT22;165;53.592;10.044;2023-03-23T23:46:19;10.90;99.90
354;DHT22;165;53.592;10.044;2023-03-23T23:48:45;10.80;99.90
354;DHT22;165;53.592;10.044;2023-03-23T23:51:10;10.80;99.90
354;DHT22;165;53.592;10.044;2023-03-23T23:53:36;10.80;99.90
354;DHT22;165;53.592;10.044;2023-03-23T23:56:02;10.90;99.90
354;DHT22;165;53.592;10.044;2023-03-23T23:58:29;10.90;99.90
